Time;durP1;ratioP1;P1;durP2;ratioP2;P2;SDS_P1;SDS_P2;PMS_P1;PMS_P2;Temp;Humidity;BMP_temperature;BMP_pressure;BME280_temperature;BME280_humidity;BME280_pressure;Samples;Min_cycle;Max_cycle;Signal;HPM_P1;HPM_P2
2021/05/02 00:01:38;;;;;;;2.70;2.50;;;11.60;99.90;;;;;;3573783;40;20395;-70
2021/05/02 00:04:06;;;;;;;3.00;2.60;;;11.60;99.90;;;;;;3575607;40;20411;-72
2021/05/02 00:06:32;;;;;;;5.20;3.78;;;11.60;99.90;;;;;;3571812;40;20407;-71
2021/05/02 00:08:58;;;;;;;5.32;4.25;;;11.60;99.90;;;;;;3572325;40;20388;-71
2021/05/02 00:11:25;;;;;;;4.78;4.07;;;11.50;99.90;;;;;;3574388;40;20392;-70
2021/05/02 00:13:51;;;;;;;3.78;3.30;;;11.50;99.90;;;;;;3574047;40;20397;-71
2021/05/02 00:16:17;;;;;;;4.05;3.20;;;11.50;99.90;;;;;;3571074;40;20394;-71
2021/05/02 00:18:45;;;;;;;3.20;2.97;;;11.60;99.90;;;;;;3576092;40;20471;-70
2021/05/02 00:21:13;;;;;;;3.50;3.00;;;11.60;99.90;;;;;;3575871;40;20392;-71
2021/05/02 00:23:40;;;;;;;3.53;3.22;;;11.60;99.90;;;;;;3576010;40;20380;-70
2021/05/02 00:26:08;;;;;;;3.65;3.25;;;11.70;99.90;;;;;;3570001;40;20423;-71
2021/05/02 00:28:35;;;;;;;3.47;3.17;;;11.70;99.90;;;;;;3577045;40;20478;-71
2021/05/02 00:31:05;;;;;;;3.85;3.50;;;11.70;99.90;;;;;;3575174;40;20384;-71
2021/05/02 00:33:35;;;;;;;4.38;3.85;;;11.60;99.90;;;;;;3577250;40;20396;-71
2021/05/02 00:36:01;;;;;;;3.78;3.47;;;;;;;;;;3573169;40;20396;-71
2021/05/02 00:38:28;;;;;;;4.00;3.25;;;;;;;;;;3566517;40;20417;-69
2021/05/02 00:40:56;;;;;;;3.50;3.20;;;;;;;;;;3574299;40;20397;-70
2021/05/02 00:43:27;;;;;;;4.00;3.53;;;;;;;;;;3574409;40;20396;-71
2021/05/02 00:45:55;;;;;;;3.35;3.05;;;;;;;;;;3577415;40;20384;-70
2021/05/02 00:48:23;;;;;;;3.60;3.30;;;;;;;;;;3575271;40;20383;-70
2021/05/02 00:50:55;;;;;;;4.55;3.60;;;;;;;;;;3573060;40;20383;-70
2021/05/02 00:53:24;;;;;;;5.47;4.97;;;;;;;;;;3577548;40;20470;-71
2021/05/02 00:55:55;;;;;;;5.47;4.75;;;;;;;;;;3573489;40;20380;-71
2021/05/02 00:58:36;;;;;;;4.85;4.35;;;11.50;99.90;;;;;;3575146;40;20379;-71
2021/05/02 01:01:05;;;;;;;4.43;4.03;;;11.90;99.90;;;;;;3566128;40;20401;-71
2021/05/02 01:03:33;;;;;;;4.00;3.60;;;11.80;99.90;;;;;;3629126;23;20513;-70
2021/05/02 01:06:06;;;;;;;4.80;4.40;;;11.80;99.90;;;;;;3567277;40;20672;-67
2021/05/02 01:08:36;;;;;;;4.80;4.40;;;11.80;99.90;;;;;;3574513;40;20686;-67
2021/05/02 01:11:05;;;;;;;5.73;4.90;;;11.80;99.90;;;;;;3577170;40;20757;-67
2021/05/02 01:13:36;;;;;;;5.25;4.75;;;11.80;99.90;;;;;;3567695;40;20377;-68
2021/05/02 01:16:04;;;;;;;5.20;4.70;;;11.80;99.90;;;;;;3570929;40;20425;-68
2021/05/02 01:18:30;;;;;;;5.95;5.35;;;11.70;99.90;;;;;;3582763;40;20464;-67
2021/05/02 01:20:57;;;;;;;6.38;5.78;;;11.70;99.90;;;;;;3577803;40;20760;-67
2021/05/02 01:23:25;;;;;;;6.55;5.95;;;11.70;99.90;;;;;;3577210;40;20417;-67
2021/05/02 01:25:53;;;;;;;6.80;6.10;;;11.70;99.90;;;;;;3578093;40;20388;-68
2021/05/02 01:28:20;;;;;;;7.30;6.53;;;11.80;99.90;;;;;;3577175;40;20378;-67
2021/05/02 01:30:46;;;;;;;6.38;5.78;;;11.80;99.90;;;;;;3577225;40;20396;-67
2021/05/02 01:33:13;;;;;;;4.55;4.15;;;11.70;99.90;;;;;;3581536;40;20366;-68
2021/05/02 01:35:39;;;;;;;4.03;3.65;;;11.70;99.90;;;;;;3567531;40;20415;-68
2021/05/02 01:38:05;;;;;;;4.00;2.85;;;11.70;99.90;;;;;;3576154;40;20749;-67
2021/05/02 01:40:32;;;;;;;3.65;3.03;;;11.60;99.90;;;;;;3577043;40;20391;-67
2021/05/02 01:42:58;;;;;;;3.28;2.97;;;11.60;99.90;;;;;;3574317;40;20432;-68
2021/05/02 01:45:24;;;;;;;4.03;3.63;;;11.60;99.90;;;;;;3573147;40;20813;-68
2021/05/02 01:47:57;;;;;;;5.65;3.13;;;11.50;99.90;;;;;;3570592;40;20577;-68
2021/05/02 01:50:27;;;;;;;3.38;3.08;;;11.50;99.90;;;;;;3572114;40;20498;-67
2021/05/02 01:52:54;;;;;;;3.40;3.10;;;11.50;99.90;;;;;;3566781;40;20491;-68
2021/05/02 01:55:21;;;;;;;3.30;3.00;;;11.40;99.90;;;;;;3577008;40;20506;-68
2021/05/02 01:57:51;;;;;;;3.47;3.17;;;11.40;99.90;;;;;;3572292;40;20399;-67
2021/05/02 02:00:29;;;;;;;3.90;3.50;;;11.50;99.90;;;;;;3579453;40;20765;-68
2021/05/02 02:03:01;;;;;;;3.60;3.30;;;11.50;99.90;;;;;;3574580;40;20365;-68
2021/05/02 02:05:30;;;;;;;3.45;3.15;;;11.50;99.90;;;;;;3568620;40;20425;-67
2021/05/02 02:07:56;;;;;;;4.32;3.92;;;11.60;99.90;;;;;;3568246;40;20509;-68
2021/05/02 02:10:25;;;;;;;3.85;3.50;;;11.60;99.90;;;;;;3556881;40;20452;-67
2021/05/02 02:12:52;;;;;;;4.47;4.07;;;11.60;99.90;;;;;;3560346;40;20388;-67
2021/05/02 02:15:19;;;;;;;3.95;3.65;;;11.60;99.90;;;;;;3558324;40;20731;-68
2021/05/02 02:17:45;;;;;;;3.38;3.13;;;11.50;99.90;;;;;;3561979;40;20395;-68
2021/05/02 02:20:12;;;;;;;3.45;3.15;;;11.50;99.90;;;;;;3569614;40;20382;-68
2021/05/02 02:22:39;;;;;;;5.05;4.13;;;11.50;99.90;;;;;;3568370;40;20384;-68
2021/05/02 02:25:06;;;;;;;4.28;3.88;;;11.50;99.90;;;;;;3565143;40;20425;-67
2021/05/02 02:27:33;;;;;;;4.27;3.87;;;;;;;;;;3570389;40;20553;-67
2021/05/02 02:30:01;;;;;;;3.40;3.20;;;;;;;;;;3567082;40;20391;-68
2021/05/02 02:32:28;;;;;;;3.80;3.40;;;;;;;;;;3565424;40;20381;-68
2021/05/02 02:34:55;;;;;;;4.68;3.60;;;;;;;;;;3564484;40;20402;-68
2021/05/02 02:37:22;;;;;;;6.80;5.00;;;;;;;;;;3565321;40;20780;-67
2021/05/02 02:39:50;;;;;;;4.07;3.70;;;;;;;;;;3557733;40;20729;-68
2021/05/02 02:42:16;;;;;;;4.85;4.30;;;;;;;;;;3571536;40;20436;-68
2021/05/02 02:44:45;;;;;;;3.70;3.40;;;;;;;;;;3565570;40;20753;-68
2021/05/02 02:47:14;;;;;;;4.80;3.63;;;;;;;;;;3571210;40;20441;-68
2021/05/02 02:49:42;;;;;;;3.30;2.97;;;;;;;;;;3564781;40;20373;-67
2021/05/02 02:52:09;;;;;;;5.30;4.50;;;;;;;;;;3566180;40;20398;-67
2021/05/02 02:54:36;;;;;;;4.35;3.95;;;;;;;;;;3567565;40;20402;-67
2021/05/02 02:57:03;;;;;;;3.50;3.20;;;;;;;;;;3572232;40;20388;-67
2021/05/02 02:59:31;;;;;;;4.45;3.88;;;;;;;;;;3565759;40;20417;-67
2021/05/02 03:01:59;;;;;;;3.90;3.50;;;;;;;;;;3570402;40;20399;-67
2021/05/02 03:04:26;;;;;;;4.60;4.20;;;;;;;;;;3551411;40;20429;-67
2021/05/02 03:06:54;;;;;;;5.03;3.95;;;;;;;;;;3565529;40;20691;-67
2021/05/02 03:09:21;;;;;;;4.45;3.88;;;;;;;;;;3560141;40;20490;-67
2021/05/02 03:11:48;;;;;;;3.78;3.40;;;;;;;;;;3568994;40;20383;-67
2021/05/02 03:14:14;;;;;;;3.67;3.38;;;;;;;;;;3561370;40;20877;-67
2021/05/02 03:16:40;;;;;;;4.28;3.67;;;;;;;;;;3566446;40;20456;-66
2021/05/02 03:19:12;;;;;;;4.25;3.85;;;;;;;;;;3566328;40;20386;-67
2021/05/02 03:21:44;;;;;;;3.97;3.58;;;;;;;;;;3566341;40;20377;-67
2021/05/02 03:24:13;;;;;;;3.10;2.90;;;;;;;;;;3568906;40;20455;-67
2021/05/02 03:26:40;;;;;;;2.97;2.67;;;;;;;;;;3565764;40;20718;-67
2021/05/02 03:29:09;;;;;;;2.60;2.40;;;;;;;;;;3557095;40;20759;-67
2021/05/02 03:31:38;;;;;;;3.00;2.70;;;;;;;;;;3566084;40;20393;-67
2021/05/02 03:34:06;;;;;;;2.92;2.72;;;;;;;;;;3561759;40;20681;-67
2021/05/02 03:36:34;;;;;;;2.72;2.53;;;;;;;;;;3566989;40;20374;-67
2021/05/02 03:39:01;;;;;;;3.50;3.20;;;;;;;;;;3558262;40;20445;-66
2021/05/02 03:41:28;;;;;;;4.10;3.75;;;;;;;;;;3566964;40;20406;-67
2021/05/02 03:43:54;;;;;;;4.22;3.83;;;;;;;;;;3559386;40;20364;-66
2021/05/02 03:46:26;;;;;;;3.50;3.20;;;;;;;;;;3572300;40;20388;-67
2021/05/02 03:48:53;;;;;;;3.42;3.13;;;;;;;;;;3568780;40;20380;-67
2021/05/02 03:51:20;;;;;;;3.38;3.08;;;;;;;;;;3563756;40;20377;-67
2021/05/02 03:53:46;;;;;;;4.28;3.50;;;;;;;;;;3570226;40;20372;-66
2021/05/02 03:56:28;;;;;;;3.33;3.03;;;;;;;;;;3566808;40;20374;-67
2021/05/02 03:58:54;;;;;;;2.85;2.38;;;;;;;;;;3563539;40;20447;-67
2021/05/02 04:01:20;;;;;;;2.83;2.20;;;;;;;;;;3566268;40;20619;-66
2021/05/02 04:03:47;;;;;;;3.22;2.40;;;;;;;;;;3569735;40;20401;-67
2021/05/02 04:06:13;;;;;;;2.22;2.03;;;;;;;;;;3569119;40;20470;-67
2021/05/02 04:08:39;;;;;;;3.20;1.65;;;;;;;;;;3571450;40;20437;-67
2021/05/02 04:11:05;;;;;;;1.30;1.20;;;;;;;;;;3565285;40;20370;-67
2021/05/02 04:13:32;;;;;;;3.00;1.52;;;;;;;;;;3560613;40;20779;-67
2021/05/02 04:15:59;;;;;;;1.85;1.50;;;;;;;;;;3566010;40;20420;-67
2021/05/02 04:18:30;;;;;;;1.77;1.30;;;;;;;;;;3565495;40;20777;-67
2021/05/02 04:20:56;;;;;;;1.65;1.50;;;;;;;;;;3567471;40;20479;-67
2021/05/02 04:23:22;;;;;;;1.70;1.20;;;;;;;;;;3567541;40;20373;-67
2021/05/02 04:25:49;;;;;;;1.40;1.00;;;;;;;;;;3564905;40;20413;-67
2021/05/02 04:28:15;;;;;;;1.70;1.30;;;;;;;;;;3566798;40;20439;-67
2021/05/02 04:30:42;;;;;;;1.75;1.50;;;;;;;;;;3555904;40;20459;-66
2021/05/02 04:33:08;;;;;;;2.30;1.30;;;;;;;;;;3569410;40;20374;-67
2021/05/02 04:35:34;;;;;;;2.67;1.40;;;;;;;;;;3567920;40;20824;-66
2021/05/02 04:38:01;;;;;;;3.28;1.13;;;;;;;;;;3577132;40;20388;-67
2021/05/02 04:40:27;;;;;;;2.13;1.50;;;;;;;;;;3567654;40;20455;-66
2021/05/02 04:42:53;;;;;;;1.75;1.63;;;;;;;;;;3568812;40;20392;-67
2021/05/02 04:45:19;;;;;;;1.58;1.48;;;;;;;;;;3570445;40;20386;-67
2021/05/02 04:47:46;;;;;;;1.77;1.33;;;;;;;;;;3566931;40;20784;-66
2021/05/02 04:50:12;;;;;;;1.23;1.13;;;;;;;;;;3570010;40;20759;-67
2021/05/02 04:52:40;;;;;;;1.98;1.45;;;;;;;;;;3563159;40;20373;-66
2021/05/02 04:55:06;;;;;;;1.77;1.33;;;;;;;;;;3559210;40;20489;-66
2021/05/02 04:57:33;;;;;;;1.50;1.40;;;;;;;;;;3569441;40;20696;-66
2021/05/02 04:59:59;;;;;;;2.37;1.30;;;;;;;;;;3564740;40;20397;-67
2021/05/02 05:02:25;;;;;;;2.40;1.50;;;;;;;;;;3564957;40;20393;-66
2021/05/02 05:04:52;;;;;;;1.60;1.40;;;;;;;;;;3569831;40;20794;-67
2021/05/02 05:07:18;;;;;;;2.63;1.52;;;10.50;99.90;;;;;;3566161;40;20417;-66
2021/05/02 05:09:44;;;;;;;2.25;1.67;;;;;;;;;;3566126;40;20443;-66
2021/05/02 05:12:10;;;;;;;3.17;2.20;;;;;;;;;;3566489;40;20445;-66
2021/05/02 05:14:37;;;;;;;2.45;2.08;;;;;;;;;;3566911;40;20710;-66
2021/05/02 05:17:03;;;;;;;2.00;1.60;;;;;;;;;;3558775;40;20398;-66
2021/05/02 05:19:29;;;;;;;2.65;1.92;;;;;;;;;;3562609;40;20474;-66
2021/05/02 05:21:56;;;;;;;2.22;2.03;;;;;;;;;;3568234;40;20393;-66
2021/05/02 05:24:22;;;;;;;2.38;2.03;;;;;;;;;;3560629;40;20394;-67
2021/05/02 05:26:49;;;;;;;2.85;2.50;;;;;;;;;;3564222;40;20493;-66
2021/05/02 05:29:15;;;;;;;3.00;2.20;;;;;;;;;;3564830;40;20906;-67
2021/05/02 05:31:41;;;;;;;3.83;2.80;;;;;;;;;;3564968;40;20375;-66
2021/05/02 05:34:07;;;;;;;4.10;3.80;;;;;;;;;;3564927;40;20386;-66
2021/05/02 05:36:33;;;;;;;3.90;3.60;;;;;;;;;;3565190;40;20370;-66
2021/05/02 05:39:00;;;;;;;3.13;2.83;;;;;;;;;;3559198;40;20382;-66
2021/05/02 05:41:27;;;;;;;2.95;2.65;;;;;;;;;;3569073;40;20388;-67
2021/05/02 05:43:53;;;;;;;2.95;2.25;;;;;;;;;;3553124;40;20787;-66
2021/05/02 05:46:19;;;;;;;2.47;2.28;;;;;;;;;;3566873;40;20524;-66
2021/05/02 05:48:45;;;;;;;3.63;2.63;;;;;;;;;;3575896;40;20383;-66
2021/05/02 05:51:12;;;;;;;3.13;2.83;;;;;;;;;;3569660;40;20410;-67
2021/05/02 05:53:38;;;;;;;3.97;3.58;;;;;;;;;;3568212;40;20775;-67
2021/05/02 05:56:05;;;;;;;3.95;3.55;;;;;;;;;;3570563;40;20396;-66
2021/05/02 05:58:32;;;;;;;3.10;2.78;;;;;;;;;;3569040;40;20381;-66
2021/05/02 06:00:59;;;;;;;3.10;2.70;;;;;;;;;;3560800;40;20480;-66
2021/05/02 06:03:25;;;;;;;2.75;2.20;;;;;;;;;;3566810;40;20765;-67
2021/05/02 06:05:51;;;;;;;2.80;2.60;;;;;;;;;;3569430;40;20364;-67
2021/05/02 06:08:17;;;;;;;3.13;2.75;;;;;;;;;;3573568;40;20386;-67
2021/05/02 06:10:43;;;;;;;1.75;1.65;;;;;;;;;;3562270;40;20460;-67
2021/05/02 06:13:12;;;;;;;1.95;1.63;;;;;;;;;;3532249;40;20427;-67
2021/05/02 06:15:38;;;;;;;2.30;1.67;;;;;;;;;;3566326;40;20497;-67
2021/05/02 06:18:04;;;;;;;1.55;1.45;;;;;;;;;;3564768;40;20411;-67
2021/05/02 06:20:30;;;;;;;2.30;1.43;;;;;;;;;;3568813;40;20526;-67
2021/05/02 06:22:57;;;;;;;3.30;2.40;;;;;;;;;;3567832;40;20415;-66
2021/05/02 06:25:23;;;;;;;1.60;1.50;;;;;;;;;;3568220;40;20404;-66
2021/05/02 06:27:49;;;;;;;1.58;1.13;;;;;;;;;;3571882;40;20733;-67
2021/05/02 06:30:17;;;;;;;1.83;0.80;;;;;;;;;;3566983;40;20388;-67
2021/05/02 06:32:43;;;;;;;0.87;0.70;;;;;;;;;;3565858;40;20550;-67
2021/05/02 06:35:10;;;;;;;1.90;0.60;;;;;;;;;;3568023;40;20781;-67
2021/05/02 06:37:36;;;;;;;1.25;0.52;;;;;;;;;;3558621;40;20405;-67
2021/05/02 06:40:03;;;;;;;1.00;0.75;;;;;;;;;;3567065;40;21829;-67
2021/05/02 06:42:29;;;;;;;1.25;0.63;;;;;;;;;;3564216;40;20398;-67
2021/05/02 06:44:55;;;;;;;0.75;0.50;;;;;;;;;;3568827;40;20650;-67
2021/05/02 06:47:22;;;;;;;0.85;0.52;;;;;;;;;;3565953;40;20775;-66
2021/05/02 06:49:50;;;;;;;1.20;0.63;;;;;;;;;;3567767;40;20388;-67
2021/05/02 06:52:16;;;;;;;0.57;0.40;;;;;;;;;;3555950;40;20497;-67
2021/05/02 06:54:43;;;;;;;1.10;0.40;;;;;;;;;;3569968;40;20384;-67
2021/05/02 06:57:09;;;;;;;1.10;0.40;;;;;;;;;;3561434;40;20395;-67
2021/05/02 06:59:35;;;;;;;0.50;0.50;;;;;;;;;;3557151;40;20636;-67
2021/05/02 07:02:01;;;;;;;1.10;0.30;;;10.50;99.90;;;;;;3565909;40;20425;-67
2021/05/02 07:04:33;;;;;;;0.30;0.20;;;;;;;;;;3557015;40;20443;-67
2021/05/02 07:06:59;;;;;;;0.83;0.17;;;;;;;;;;3566551;40;20418;-67
2021/05/02 07:09:26;;;;;;;0.80;0.10;;;;;;;;;;3564191;40;20439;-67
2021/05/02 07:11:52;;;;;;;0.70;0.20;;;;;;;;;;3567728;40;20374;-67
2021/05/02 07:14:18;;;;;;;0.30;0.30;;;;;;;;;;3566652;40;20477;-67
2021/05/02 07:16:44;;;;;;;0.80;0.30;;;;;;;;;;3562997;40;20516;-67
2021/05/02 07:19:12;;;;;;;1.17;0.38;;;;;;;;;;3563371;40;20855;-66
2021/05/02 07:21:39;;;;;;;0.40;0.27;;;13.00;99.90;;;;;;3561270;40;20795;-67
2021/05/02 07:24:06;;;;;;;1.52;0.20;;;13.90;99.90;;;;;;3566283;40;20390;-67
2021/05/02 07:26:32;;;;;;;0.45;0.20;;;14.00;99.90;;;;;;3560374;40;20417;-67
2021/05/02 07:28:58;;;;;;;0.55;0.20;;;14.00;99.90;;;;;;3556770;40;20398;-67
2021/05/02 07:31:24;;;;;;;0.28;0.20;;;;;;;;;;3570719;40;20510;-66
2021/05/02 07:33:50;;;;;;;0.77;0.20;;;14.20;99.90;;;;;;3564886;40;20445;-67
2021/05/02 07:36:17;;;;;;;1.70;0.30;;;;;;;;;;3569671;40;20382;-67
2021/05/02 07:38:45;;;;;;;0.28;0.20;;;;;;;;;;3569621;40;20375;-67
2021/05/02 07:41:11;;;;;;;0.50;0.20;;;;;;;;;;3569844;40;20386;-67
2021/05/02 07:43:39;;;;;;;0.30;0.20;;;;;;;;;;3574241;40;20390;-66
2021/05/02 07:46:06;;;;;;;0.77;0.25;;;;;;;;;;3572386;40;20405;-67
2021/05/02 07:48:32;;;;;;;0.98;0.20;;;;;;;;;;3570779;40;20701;-67
2021/05/02 07:50:58;;;;;;;0.95;0.30;;;14.70;99.90;;;;;;3571150;40;20374;-67
2021/05/02 07:53:25;;;;;;;0.80;0.30;;;;;;;;;;3569351;40;20486;-67
2021/05/02 07:55:52;;;;;;;0.30;0.20;;;;;;;;;;3568596;40;20433;-67
2021/05/02 07:58:18;;;;;;;0.47;0.20;;;;;;;;;;3567053;40;20765;-66
2021/05/02 08:00:44;;;;;;;0.80;0.20;;;;;;;;;;3569370;40;20387;-67
2021/05/02 08:03:10;;;;;;;0.70;0.20;;;;;;;;;;3571954;40;20384;-67
2021/05/02 08:05:37;;;;;;;0.22;0.20;;;;;;;;;;3567655;40;20407;-67
2021/05/02 08:08:03;;;;;;;1.45;0.30;;;;;;;;;;3558654;40;20763;-67
2021/05/02 08:10:29;;;;;;;0.20;0.20;;;;;;;;;;3566237;40;20511;-67
2021/05/02 08:12:57;;;;;;;0.50;0.30;;;;;;;;;;3566111;40;20375;-66
2021/05/02 08:15:23;;;;;;;1.98;0.70;;;;;;;;;;3566198;40;20381;-66
2021/05/02 08:17:50;;;;;;;1.20;0.30;;;;;;;;;;3565969;40;20666;-67
2021/05/02 08:20:16;;;;;;;1.50;0.30;;;;;;;;;;3565844;40;20432;-66
2021/05/02 08:22:42;;;;;;;0.88;0.40;;;16.40;99.90;;;;;;3566495;40;20389;-66
2021/05/02 08:25:09;;;;;;;0.63;0.32;;;;;;;;;;3560633;40;20471;-67
2021/05/02 08:27:35;;;;;;;0.90;0.30;;;;;;;;;;3569714;40;20415;-66
2021/05/02 08:30:03;;;;;;;2.05;0.30;;;;;;;;;;3571988;40;20399;-66
2021/05/02 08:32:29;;;;;;;0.43;0.20;;;;;;;;;;3570397;40;20798;-66
2021/05/02 08:34:55;;;;;;;0.40;0.30;;;;;;;;;;3567972;40;20429;-66
2021/05/02 08:37:21;;;;;;;0.90;0.30;;;;;;;;;;3573160;40;20769;-67
2021/05/02 08:39:47;;;;;;;1.10;0.25;;;;;;;;;;3566845;40;20381;-66
2021/05/02 08:42:14;;;;;;;0.73;0.20;;;;;;;;;;3578230;40;20814;-66
2021/05/02 08:44:40;;;;;;;1.10;0.22;;;;;;;;;;3575433;40;20553;-67
2021/05/02 08:47:07;;;;;;;0.40;0.20;;;;;;;;;;3568546;40;20419;-67
2021/05/02 08:49:34;;;;;;;1.50;0.20;;;;;;;;;;3560929;40;20389;-66
2021/05/02 08:52:00;;;;;;;1.40;0.20;;;;;;;;;;3567851;40;20393;-67
2021/05/02 08:54:28;;;;;;;0.20;0.10;;;;;;;;;;3565537;40;20531;-67
2021/05/02 08:56:56;;;;;;;1.50;0.30;;;;;;;;;;3562942;40;20560;-67
2021/05/02 08:59:22;;;;;;;1.85;0.10;;;;;;;;;;3564318;40;20385;-66
2021/05/02 09:01:48;;;;;;;0.65;0.20;;;;;;;;;;3562439;40;20621;-67
2021/05/02 09:04:15;;;;;;;0.40;0.20;;;;;;;;;;3553520;40;20727;-66
2021/05/02 09:06:42;;;;;;;2.80;0.20;;;;;;;;;;3563001;40;20731;-67
2021/05/02 09:09:10;;;;;;;1.23;0.40;;;;;;;;;;3562196;40;20383;-67
2021/05/02 09:11:37;;;;;;;0.30;0.22;;;;;;;;;;3563272;40;20397;-67
2021/05/02 09:14:04;;;;;;;0.40;0.20;;;;;;;;;;3571592;40;20360;-66
2021/05/02 09:16:44;;;;;;;0.13;0.10;;;;;;;;;;3556766;40;20420;-66
2021/05/02 09:19:10;;;;;;;0.47;0.20;;;;;;;;;;3562347;40;20768;-66
2021/05/02 09:21:38;;;;;;;1.85;0.28;;;;;;;;;;3561716;40;20412;-66
2021/05/02 09:24:07;;;;;;;0.40;0.17;;;;;;;;;;3565371;40;20384;-67
2021/05/02 09:26:36;;;;;;;1.00;0.20;;;;;;;;;;3563947;40;20473;-67
2021/05/02 09:29:06;;;;;;;1.35;0.20;;;;;;;;;;3560568;40;20421;-67
2021/05/02 09:31:33;;;;;;;0.50;0.20;;;;;;;;;;3562878;40;20384;-67
2021/05/02 09:34:10;;;;;;;0.28;0.20;;;;;;;;;;3556565;40;20495;-66
2021/05/02 09:36:49;;;;;;;0.10;0.10;;;;;;;;;;3561267;40;20371;-66
2021/05/02 09:39:15;;;;;;;0.40;0.10;;;;;;;;;;3555549;40;20389;-67
2021/05/02 09:41:41;;;;;;;0.73;0.10;;;;;;;;;;3565707;40;20391;-66
2021/05/02 09:44:08;;;;;;;0.98;0.20;;;;;;;;;;3561029;40;20401;-66
2021/05/02 09:46:34;;;;;;;0.60;0.10;;;;;;;;;;3564408;40;20863;-66
2021/05/02 09:49:11;;;;;;;0.70;0.20;;;;;;;;;;3563441;40;20430;-67
2021/05/02 09:51:44;;;;;;;1.70;0.20;;;;;;;;;;3555335;40;20403;-66
2021/05/02 09:54:11;;;;;;;1.40;0.30;;;;;;;;;;3559623;40;20478;-67
2021/05/02 09:56:39;;;;;;;0.80;0.20;;;;;;;;;;3551889;40;20408;-67
2021/05/02 09:59:06;;;;;;;1.10;0.20;;;;;;;;;;3553801;40;20753;-66
2021/05/02 10:01:32;;;;;;;0.50;0.20;;;;;;;;;;3560852;40;20421;-66
2021/05/02 10:04:00;;;;;;;0.77;0.20;;;;;;;;;;3565721;40;20461;-67
2021/05/02 10:06:31;;;;;;;0.93;0.20;;;;;;;;;;3566864;40;20467;-66
2021/05/02 10:08:59;;;;;;;1.00;0.25;;;;;;;;;;3566731;40;20636;-67
2021/05/02 10:11:25;;;;;;;0.90;0.20;;;;;;;;;;3564567;40;20389;-67
2021/05/02 10:13:52;;;;;;;0.50;0.20;;;;;;;;;;3567039;40;20622;-66
2021/05/02 10:16:18;;;;;;;0.70;0.30;;;;;;;;;;3565329;40;20383;-66
2021/05/02 10:18:45;;;;;;;0.82;0.22;;;;;;;;;;3563543;40;20456;-66
2021/05/02 10:21:12;;;;;;;0.68;0.20;;;;;;;;;;3567409;40;20405;-67
2021/05/02 10:23:38;;;;;;;0.90;0.25;;;;;;;;;;3568506;40;20429;-67
2021/05/02 10:26:06;;;;;;;1.67;0.30;;;;;;;;;;3569742;40;20480;-66
2021/05/02 10:28:33;;;;;;;1.10;0.40;;;;;;;;;;3554106;40;20415;-67
2021/05/02 10:31:00;;;;;;;0.20;0.10;;;;;;;;;;3568123;40;20487;-67
2021/05/02 10:33:31;;;;;;;0.60;0.25;;;;;;;;;;3570814;40;20819;-67
2021/05/02 10:36:00;;;;;;;0.20;0.10;;;;;;;;;;3568577;40;20400;-69
2021/05/02 10:38:41;;;;;;;0.40;0.20;;;;;;;;;;3568464;40;20771;-67
2021/05/02 10:41:37;;;;;;;1.00;0.30;;;;;;;;;;3556873;40;20441;-68
2021/05/02 10:44:18;;;;;;;0.50;0.20;;;;;;;;;;3568202;40;20389;-67
2021/05/02 10:46:58;;;;;;;1.00;0.40;;;;;;;;;;3569632;40;20431;-68
2021/05/02 10:49:43;;;;;;;1.40;0.30;;;;;;;;;;3569304;40;20376;-67
2021/05/02 10:52:29;;;;;;;0.65;0.30;;;;;;;;;;3566536;40;20366;-67
2021/05/02 10:55:06;;;;;;;1.45;0.30;;;;;;;;;;3557553;40;20409;-67
2021/05/02 10:57:33;;;;;;;0.40;0.10;;;;;;;;;;3566343;40;20395;-67
2021/05/02 11:00:04;;;;;;;1.20;0.00;;;;;;;;;;3568087;40;20374;-67
2021/05/02 11:02:35;;;;;;;0.17;0.10;;;;;;;;;;3569006;40;20390;-67
2021/05/02 11:05:02;;;;;;;0.40;0.00;;;;;;;;;;3569258;40;20455;-67
2021/05/02 11:07:37;;;;;;;1.40;0.10;;;;;;;;;;3567639;40;20403;-67
2021/05/02 11:10:05;;;;;;;0.10;0.10;;;;;;;;;;3568825;40;20454;-67
2021/05/02 11:12:31;;;;;;;0.50;0.10;;;;;;;;;;3567542;40;20735;-67
2021/05/02 11:14:58;;;;;;;0.30;0.10;;;;;;;;;;3559929;40;20807;-69
2021/05/02 11:17:28;;;;;;;0.25;0.20;;;;;;;;;;3559530;40;20402;-68
2021/05/02 11:19:57;;;;;;;0.20;0.20;;;;;;;;;;3570932;40;20368;-68
2021/05/02 11:22:23;;;;;;;0.40;0.10;;;;;;;;;;3567727;40;20401;-68
2021/05/02 11:24:54;;;;;;;0.68;0.10;;;;;;;;;;3568655;40;20416;-67
2021/05/02 11:27:27;;;;;;;0.47;0.20;;;;;;;;;;3569989;40;20469;-67
2021/05/02 11:30:13;;;;;;;0.77;0.10;;;;;;;;;;3568941;40;20371;-68
2021/05/02 11:32:40;;;;;;;0.40;0.20;;;;;;;;;;3555172;40;20658;-68
2021/05/02 11:35:09;;;;;;;1.27;0.20;;;;;;;;;;3555188;40;20469;-67
2021/05/02 11:37:38;;;;;;;1.90;0.43;;;;;;;;;;3558873;40;20424;-66
2021/05/02 11:40:19;;;;;;;0.30;0.20;;;;;;;;;;3558442;40;21543;-66
2021/05/02 11:42:52;;;;;;;0.30;0.20;;;;;;;;;;3558224;40;20484;-66
2021/05/02 11:45:19;;;;;;;0.70;0.10;;;;;;;;;;3555879;40;20409;-66
2021/05/02 11:47:45;;;;;;;1.15;0.30;;;;;;;;;;3554568;40;20425;-66
2021/05/02 11:50:12;;;;;;;0.27;0.10;;;;;;;;;;3551930;40;20409;-66
2021/05/02 11:52:48;;;;;;;0.25;0.20;;;;;;;;;;3557672;40;20458;-67
2021/05/02 11:55:27;;;;;;;0.10;0.10;;;;;;;;;;3529217;40;20391;-67
2021/05/02 11:57:54;;;;;;;1.30;0.10;;;;;;;;;;3518790;40;20428;-67
2021/05/02 12:00:36;;;;;;;0.45;0.20;;;;;;;;;;3521652;40;20398;-66
2021/05/02 12:03:02;;;;;;;1.00;0.20;;;;;;;;;;3528317;40;20438;-67
2021/05/02 12:05:29;;;;;;;0.65;0.13;;;;;;;;;;3537702;40;20496;-67
2021/05/02 12:08:08;;;;;;;1.13;0.10;;;;;;;;;;3537749;40;20473;-67
2021/05/02 12:10:34;;;;;;;0.20;0.10;;;;;;;;;;3536898;40;20408;-66
2021/05/02 12:13:01;;;;;;;0.35;0.10;;;;;;;;;;3538773;40;20672;-66
2021/05/02 12:15:27;;;;;;;0.70;0.20;;;;;;;;;;3536553;40;20423;-67
2021/05/02 12:17:53;;;;;;;0.70;0.10;;;;;;;;;;3536667;40;20410;-67
2021/05/02 12:20:23;;;;;;;0.40;0.20;;;;;;;;;;3534885;40;20468;-67
2021/05/02 12:22:51;;;;;;;0.80;0.10;;;;;;;;;;3529656;40;20469;-67
2021/05/02 12:25:17;;;;;;;0.30;0.20;;;;;;;;;;3539544;40;20444;-67
2021/05/02 12:27:56;;;;;;;0.40;0.20;;;;;;;;;;3538435;40;20415;-67
2021/05/02 12:30:22;;;;;;;0.60;0.20;;;;;;;;;;3535014;40;20743;-68
2021/05/02 12:32:49;;;;;;;0.70;0.10;;;;;;;;;;3554334;40;20416;-67
2021/05/02 12:35:15;;;;;;;0.20;0.10;;;;;;;;;;3569968;40;20382;-67
2021/05/02 12:37:41;;;;;;;0.70;0.15;;;;;;;;;;3569324;40;20476;-67
2021/05/02 12:40:10;;;;;;;0.10;0.10;;;;;;;;;;3569207;40;20490;-67
2021/05/02 12:42:36;;;;;;;0.10;0.10;;;;;;;;;;3568800;40;20458;-67
2021/05/02 12:45:04;;;;;;;0.57;0.20;;;;;;;;;;3569284;40;20761;-67
2021/05/02 12:47:31;;;;;;;1.13;0.10;;;;;;;;;;3571575;40;20445;-67
2021/05/02 12:49:58;;;;;;;0.10;0.10;;;;;;;;;;3571475;40;20391;-67
2021/05/02 12:52:28;;;;;;;0.68;0.08;;;;;;;;;;3570715;40;20797;-67
2021/05/02 12:54:55;;;;;;;0.33;0.13;;;;;;;;;;3570935;40;20376;-67
2021/05/02 12:57:25;;;;;;;0.13;0.10;;;;;;;;;;3570898;40;20378;-67
2021/05/02 12:59:57;;;;;;;0.40;0.20;;;;;;;;;;3571381;40;20389;-67
2021/05/02 13:02:32;;;;;;;0.10;0.10;;;;;;;;;;3566401;40;20376;-66
2021/05/02 13:05:02;;;;;;;0.30;0.10;;;;;;;;;;3565233;40;20416;-67
2021/05/02 13:07:32;;;;;;;0.22;0.20;;;;;;;;;;3553405;40;20400;-68
2021/05/02 13:09:59;;;;;;;0.20;0.10;;;;;;;;;;3558017;40;20771;-67
2021/05/02 13:12:26;;;;;;;1.20;0.20;;;;;;;;;;3549572;40;20393;-67
2021/05/02 13:15:02;;;;;;;0.60;0.30;;;;;;;;;;3539690;40;20446;-67
2021/05/02 13:17:28;;;;;;;0.82;0.17;;;;;;;;;;3544654;40;20644;-67
2021/05/02 13:19:57;;;;;;;0.53;0.20;;;;;;;;;;3551728;40;20401;-67
2021/05/02 13:22:24;;;;;;;0.50;0.10;;;;;;;;;;3548722;40;20470;-68
2021/05/02 13:24:57;;;;;;;0.80;0.30;;;;;;;;;;3554535;40;20403;-67
2021/05/02 13:27:41;;;;;;;0.20;0.10;;;;;;;;;;3546951;40;20421;-67
2021/05/02 13:30:08;;;;;;;0.50;0.10;;;;;;;;;;3553372;40;20774;-67
2021/05/02 13:32:57;;;;;;;0.30;0.20;;;;;;;;;;3551350;40;20586;-67
2021/05/02 13:35:24;;;;;;;0.20;0.17;;;;;;;;;;3550408;40;20404;-67
2021/05/02 13:37:50;;;;;;;0.32;0.17;;;;;;;;;;3558550;40;20380;-67
2021/05/02 13:40:18;;;;;;;0.50;0.20;;;;;;;;;;3572337;40;20391;-67
2021/05/02 13:42:45;;;;;;;0.70;0.20;;;;;;;;;;3566603;40;20401;-67
2021/05/02 13:45:12;;;;;;;0.55;0.25;;;;;;;;;;3567088;40;20789;-67
2021/05/02 13:47:38;;;;;;;0.50;0.20;;;;;;;;;;3565820;40;20378;-67
2021/05/02 13:50:05;;;;;;;0.52;0.22;;;;;;;;;;3566540;40;20763;-67
2021/05/02 13:52:31;;;;;;;0.20;0.10;;;;;;;;;;3567249;40;20366;-67
2021/05/02 13:54:58;;;;;;;0.50;0.30;;;;;;;;;;3554221;40;20427;-67
2021/05/02 13:57:24;;;;;;;0.20;0.20;;;;;;;;;;3568344;40;20428;-67
2021/05/02 13:59:52;;;;;;;0.73;0.20;;;;;;;;;;3567170;40;20471;-68
2021/05/02 14:02:18;;;;;;;0.50;0.20;;;;;;;;;;3565110;40;20467;-67
2021/05/02 14:04:44;;;;;;;0.77;0.30;;;;;;;;;;3564162;40;20394;-67
2021/05/02 14:07:11;;;;;;;0.80;0.20;;;;;;;;;;3566380;40;20405;-68
2021/05/02 14:09:37;;;;;;;0.60;0.52;;;;;;;;;;3569444;40;20370;-67
2021/05/02 14:12:04;;;;;;;0.45;0.30;;;;;;;;;;3562609;40;20371;-67
2021/05/02 14:14:30;;;;;;;0.75;0.30;;;;;;;;;;3562892;40;20374;-68
2021/05/02 14:16:57;;;;;;;1.00;0.50;;;;;;;;;;3564653;40;20366;-67
2021/05/02 14:19:23;;;;;;;0.40;0.20;;;;;;;;;;3571587;40;20760;-67
2021/05/02 14:21:49;;;;;;;0.50;0.23;;;;;;;;;;3573281;40;20405;-67
2021/05/02 14:24:16;;;;;;;0.20;0.10;;;;;;;;;;3557795;40;20386;-67
2021/05/02 14:26:42;;;;;;;0.40;0.20;;;;;;;;;;3563886;40;20432;-67